sensor_id;sensor_type;location;lat;lon;timestamp;temperature;humidity
16076;DHT22;8142;48.242;11.644;2023-04-15T00:00:10;6.90;99.90
16076;DHT22;8142;48.242;11.644;2023-04-15T00:02:36;6.90;99.90
16076;DHT22;8142;48.242;11.644;2023-04-15T00:05:04;6.80;99.90
16076;DHT22;8142;48.242;11.644;2023-04-15T00:07:30;6.80;99.90
16076;DHT22;8142;48.242;11.644;2023-04-15T00:09:56;6.70;99.90
16076;DHT22;8142;48.242;11.644;2023-04-15T00:12:24;6.70;99.90
16076;DHT22;8142;48.242;11.644;2023-04-15T00:14:50;6.70;99.90
16076;DHT22;8142;48.242;11.644;2023-04-15T00:17:16;6.70;99.90
16076;DHT22;8142;48.242;11.644;2023-04-15T00:19:42;6.70;99.90
16076;DHT22;8142;48.242;11.644;2023-04-15T00:22:09;6.70;99.90
16076;DHT22;8142;48.242;11.644;2023-04-15T00:24:35;6.90;99.90
16076;DHT22;8142;48.242;11.644;2023-04-15T00:27:01;7.10;99.90
16076;DHT22;8142;48.242;11.644;2023-04-15T00:29:28;7.10;99.90
16076;DHT22;8142;48.242;11.644;2023-04-15T00:31:55;7.00;99.90
16076;DHT22;8142;48.242;11.644;2023-04-15T00:34:24;7.00;99.90
16076;DHT22;8142;48.242;11.644;2023-04-15T00:36:50;6.90;99.90
16076;DHT22;8142;48.242;11.644;2023-04-15T00:39:17;6.90;99.90
16076;DHT22;8142;48.242;11.644;2023-04-15T00:41:43;6.90;99.90
16076;DHT22;8142;48.242;11.644;2023-04-15T00:44:10;6.90;99.90
16076;DHT22;8142;48.242;11.644;2023-04-15T00:46:37;6.80;99.90
16076;DHT22;8142;48.242;11.644;2023-04-15T00:49:05;6.80;99.90
16076;DHT22;8142;48.242;11.644;2023-04-15T00:51:32;6.80;99.90
16076;DHT22;8142;48.242;11.644;2023-04-15T00:54:04;7.00;99.90
16076;DHT22;8142;48.242;11.644;2023-04-15T00:56:30;7.10;99.90
16076;DHT22;8142;48.242;11.644;2023-04-15T00:59:00;7.20;99.90
16076;DHT22;8142;48.242;11.644;2023-04-15T01:01:27;7.10;99.90
16076;DHT22;8142;48.242;11.644;2023-04-15T01:03:55;7.00;99.90
16076;DHT22;8142;48.242;11.644;2023-04-15T01:06:23;7.00;99.90
16076;DHT22;8142;48.242;11.644;2023-04-15T01:08:49;7.00;99.90
16076;DHT22;8142;48.242;11.644;2023-04-15T01:11:16;6.90;99.90
16076;DHT22;8142;48.242;11.644;2023-04-15T01:13:42;6.90;99.90
16076;DHT22;8142;48.242;11.644;2023-04-15T01:16:08;6.80;99.90
16076;DHT22;8142;48.242;11.644;2023-04-15T01:18:35;6.80;99.90
16076;DHT22;8142;48.242;11.644;2023-04-15T01:21:03;6.80;99.90
16076;DHT22;8142;48.242;11.644;2023-04-15T01:23:30;6.80;99.90
16076;DHT22;8142;48.242;11.644;2023-04-15T01:25:58;7.00;99.90
16076;DHT22;8142;48.242;11.644;2023-04-15T01:28:24;7.10;99.90
16076;DHT22;8142;48.242;11.644;2023-04-15T01:31:07;7.10;99.90
16076;DHT22;8142;48.242;11.644;2023-04-15T01:33:33;7.00;99.90
16076;DHT22;8142;48.242;11.644;2023-04-15T01:35:59;6.90;99.90
16076;DHT22;8142;48.242;11.644;2023-04-15T01:38:26;6.90;99.90
16076;DHT22;8142;48.242;11.644;2023-04-15T01:40:52;6.90;99.90
16076;DHT22;8142;48.242;11.644;2023-04-15T01:43:18;6.90;99.90
16076;DHT22;8142;48.242;11.644;2023-04-15T01:45:44;6.90;99.90
16076;DHT22;8142;48.242;11.644;2023-04-15T01:48:10;6.80;99.90
16076;DHT22;8142;48.242;11.644;2023-04-15T01:50:37;6.80;99.90
16076;DHT22;8142;48.242;11.644;2023-04-15T01:53:03;6.90;99.90
16076;DHT22;8142;48.242;11.644;2023-04-15T01:55:29;7.20;99.90
16076;DHT22;8142;48.242;11.644;2023-04-15T01:57:55;7.30;99.90
16076;DHT22;8142;48.242;11.644;2023-04-15T02:00:22;7.30;99.90
16076;DHT22;8142;48.242;11.644;2023-04-15T02:02:48;7.30;99.90
16076;DHT22;8142;48.242;11.644;2023-04-15T02:05:14;7.20;99.90
16076;DHT22;8142;48.242;11.644;2023-04-15T02:07:44;7.10;99.90
16076;DHT22;8142;48.242;11.644;2023-04-15T02:10:10;7.10;99.90
16076;DHT22;8142;48.242;11.644;2023-04-15T02:12:41;7.10;99.90
16076;DHT22;8142;48.242;11.644;2023-04-15T02:15:07;7.10;99.90
16076;DHT22;8142;48.242;11.644;2023-04-15T02:17:34;7.00;99.90
16076;DHT22;8142;48.242;11.644;2023-04-15T02:20:00;7.00;99.90
16076;DHT22;8142;48.242;11.644;2023-04-15T02:22:26;7.00;99.90
16076;DHT22;8142;48.242;11.644;2023-04-15T02:24:52;7.30;99.90
16076;DHT22;8142;48.242;11.644;2023-04-15T02:27:18;7.40;99.90
16076;DHT22;8142;48.242;11.644;2023-04-15T02:29:45;7.40;99.90
16076;DHT22;8142;48.242;11.644;2023-04-15T02:32:13;7.30;99.90
16076;DHT22;8142;48.242;11.644;2023-04-15T02:34:40;7.20;99.90
16076;DHT22;8142;48.242;11.644;2023-04-15T02:37:08;7.20;99.90
16076;DHT22;8142;48.242;11.644;2023-04-15T02:39:34;7.10;99.90
16076;DHT22;8142;48.242;11.644;2023-04-15T02:42:00;7.00;99.90
16076;DHT22;8142;48.242;11.644;2023-04-15T02:44:27;7.00;99.90
16076;DHT22;8142;48.242;11.644;2023-04-15T02:46:53;7.00;99.90
16076;DHT22;8142;48.242;11.644;2023-04-15T02:49:20;6.90;99.90
16076;DHT22;8142;48.242;11.644;2023-04-15T02:51:46;6.90;99.90
16076;DHT22;8142;48.242;11.644;2023-04-15T02:54:19;6.90;99.90
16076;DHT22;8142;48.242;11.644;2023-04-15T02:56:45;7.00;99.90
16076;DHT22;8142;48.242;11.644;2023-04-15T02:59:12;7.00;99.90
16076;DHT22;8142;48.242;11.644;2023-04-15T03:01:38;6.90;99.90
16076;DHT22;8142;48.242;11.644;2023-04-15T03:04:04;6.90;99.90
16076;DHT22;8142;48.242;11.644;2023-04-15T03:06:30;6.80;99.90
16076;DHT22;8142;48.242;11.644;2023-04-15T03:08:56;6.80;99.90
16076;DHT22;8142;48.242;11.644;2023-04-15T03:11:22;6.80;99.90
16076;DHT22;8142;48.242;11.644;2023-04-15T03:13:47;6.80;99.90
16076;DHT22;8142;48.242;11.644;2023-04-15T03:16:13;6.80;99.90
16076;DHT22;8142;48.242;11.644;2023-04-15T03:18:39;6.80;99.90
16076;DHT22;8142;48.242;11.644;2023-04-15T03:21:05;6.80;99.90
16076;DHT22;8142;48.242;11.644;2023-04-15T03:23:31;6.90;99.90
16076;DHT22;8142;48.242;11.644;2023-04-15T03:26:00;7.10;99.90
16076;DHT22;8142;48.242;11.644;2023-04-15T03:28:26;7.20;99.90
16076;DHT22;8142;48.242;11.644;2023-04-15T03:30:51;7.20;99.90
16076;DHT22;8142;48.242;11.644;2023-04-15T03:33:17;7.10;99.90
16076;DHT22;8142;48.242;11.644;2023-04-15T03:35:43;7.00;99.90
16076;DHT22;8142;48.242;11.644;2023-04-15T03:38:09;7.00;99.90
16076;DHT22;8142;48.242;11.644;2023-04-15T03:40:35;6.90;99.90
16076;DHT22;8142;48.242;11.644;2023-04-15T03:43:01;6.90;99.90
16076;DHT22;8142;48.242;11.644;2023-04-15T03:45:27;6.80;99.90
16076;DHT22;8142;48.242;11.644;2023-04-15T03:47:53;6.80;99.90
16076;DHT22;8142;48.242;11.644;2023-04-15T03:50:18;6.80;99.90
16076;DHT22;8142;48.242;11.644;2023-04-15T03:52:44;6.90;99.90
16076;DHT22;8142;48.242;11.644;2023-04-15T03:55:11;6.90;99.90
16076;DHT22;8142;48.242;11.644;2023-04-15T03:57:36;6.90;99.90
16076;DHT22;8142;48.242;11.644;2023-04-15T04:00:05;6.90;99.90
16076;DHT22;8142;48.242;11.644;2023-04-15T04:02:30;6.80;99.90
16076;DHT22;8142;48.242;11.644;2023-04-15T04:04:56;6.70;99.90
16076;DHT22;8142;48.242;11.644;2023-04-15T04:07:23;6.70;99.90
16076;DHT22;8142;48.242;11.644;2023-04-15T04:09:49;6.50;99.90
16076;DHT22;8142;48.242;11.644;2023-04-15T04:12:15;6.40;99.90
16076;DHT22;8142;48.242;11.644;2023-04-15T04:14:41;6.30;99.90
16076;DHT22;8142;48.242;11.644;2023-04-15T04:17:07;6.10;99.90
16076;DHT22;8142;48.242;11.644;2023-04-15T04:19:33;6.00;99.90
16076;DHT22;8142;48.242;11.644;2023-04-15T04:21:59;5.90;99.90
16076;DHT22;8142;48.242;11.644;2023-04-15T04:24:25;5.80;99.90
16076;DHT22;8142;48.242;11.644;2023-04-15T04:26:51;5.70;99.90
16076;DHT22;8142;48.242;11.644;2023-04-15T04:29:17;5.60;99.90
16076;DHT22;8142;48.242;11.644;2023-04-15T04:31:43;5.60;99.90
16076;DHT22;8142;48.242;11.644;2023-04-15T04:34:09;5.50;99.90
16076;DHT22;8142;48.242;11.644;2023-04-15T04:36:34;5.50;99.90
16076;DHT22;8142;48.242;11.644;2023-04-15T04:39:00;5.50;99.90
16076;DHT22;8142;48.242;11.644;2023-04-15T04:41:26;5.40;99.90
16076;DHT22;8142;48.242;11.644;2023-04-15T04:43:53;5.50;99.90
16076;DHT22;8142;48.242;11.644;2023-04-15T04:46:18;5.50;99.90
16076;DHT22;8142;48.242;11.644;2023-04-15T04:48:44;5.40;99.90
16076;DHT22;8142;48.242;11.644;2023-04-15T04:51:10;5.50;99.90
16076;DHT22;8142;48.242;11.644;2023-04-15T04:53:36;5.40;99.90
16076;DHT22;8142;48.242;11.644;2023-04-15T04:56:02;5.40;99.90
16076;DHT22;8142;48.242;11.644;2023-04-15T04:58:28;5.40;99.90
16076;DHT22;8142;48.242;11.644;2023-04-15T05:00:55;5.40;99.90
16076;DHT22;8142;48.242;11.644;2023-04-15T05:03:21;5.40;99.90
16076;DHT22;8142;48.242;11.644;2023-04-15T05:05:47;5.40;99.90
16076;DHT22;8142;48.242;11.644;2023-04-15T05:08:14;5.40;99.90
16076;DHT22;8142;48.242;11.644;2023-04-15T05:10:40;5.40;99.90
16076;DHT22;8142;48.242;11.644;2023-04-15T05:13:06;5.50;99.90
16076;DHT22;8142;48.242;11.644;2023-04-15T05:15:32;5.40;99.90
16076;DHT22;8142;48.242;11.644;2023-04-15T05:17:59;5.50;99.90
16076;DHT22;8142;48.242;11.644;2023-04-15T05:20:25;5.50;99.90
16076;DHT22;8142;48.242;11.644;2023-04-15T05:22:51;5.50;99.90
16076;DHT22;8142;48.242;11.644;2023-04-15T05:25:17;5.50;99.90
16076;DHT22;8142;48.242;11.644;2023-04-15T05:27:42;5.50;99.90
16076;DHT22;8142;48.242;11.644;2023-04-15T05:30:09;5.50;99.90
16076;DHT22;8142;48.242;11.644;2023-04-15T05:32:35;5.50;99.90
16076;DHT22;8142;48.242;11.644;2023-04-15T05:35:01;5.50;99.90
16076;DHT22;8142;48.242;11.644;2023-04-15T05:37:28;5.50;99.90
16076;DHT22;8142;48.242;11.644;2023-04-15T05:39:53;5.60;99.90
16076;DHT22;8142;48.242;11.644;2023-04-15T05:42:19;5.60;99.90
16076;DHT22;8142;48.242;11.644;2023-04-15T05:44:45;5.60;99.90
16076;DHT22;8142;48.242;11.644;2023-04-15T05:47:11;5.60;99.90
16076;DHT22;8142;48.242;11.644;2023-04-15T05:49:37;5.60;99.90
16076;DHT22;8142;48.242;11.644;2023-04-15T05:52:03;5.70;99.90
16076;DHT22;8142;48.242;11.644;2023-04-15T05:54:29;5.70;99.90
16076;DHT22;8142;48.242;11.644;2023-04-15T05:56:55;5.80;99.90
16076;DHT22;8142;48.242;11.644;2023-04-15T05:59:22;5.90;99.90
16076;DHT22;8142;48.242;11.644;2023-04-15T06:01:48;5.90;99.90
16076;DHT22;8142;48.242;11.644;2023-04-15T06:04:14;6.00;99.90
16076;DHT22;8142;48.242;11.644;2023-04-15T06:06:40;6.00;99.90
16076;DHT22;8142;48.242;11.644;2023-04-15T06:09:06;6.10;99.90
16076;DHT22;8142;48.242;11.644;2023-04-15T06:11:32;6.10;99.90
16076;DHT22;8142;48.242;11.644;2023-04-15T06:13:58;6.20;99.90
16076;DHT22;8142;48.242;11.644;2023-04-15T06:16:24;6.20;99.90
16076;DHT22;8142;48.242;11.644;2023-04-15T06:18:50;6.30;99.90
16076;DHT22;8142;48.242;11.644;2023-04-15T06:21:16;6.30;99.90
16076;DHT22;8142;48.242;11.644;2023-04-15T06:23:42;6.40;99.90
16076;DHT22;8142;48.242;11.644;2023-04-15T06:26:08;6.40;99.90
16076;DHT22;8142;48.242;11.644;2023-04-15T06:28:33;6.50;99.90
16076;DHT22;8142;48.242;11.644;2023-04-15T06:31:00;6.50;99.90
16076;DHT22;8142;48.242;11.644;2023-04-15T06:33:26;6.60;99.90
16076;DHT22;8142;48.242;11.644;2023-04-15T06:35:52;6.70;99.90
16076;DHT22;8142;48.242;11.644;2023-04-15T06:38:18;6.70;99.90
16076;DHT22;8142;48.242;11.644;2023-04-15T06:40:45;6.80;99.90
16076;DHT22;8142;48.242;11.644;2023-04-15T06:43:11;6.90;99.90
16076;DHT22;8142;48.242;11.644;2023-04-15T06:45:36;7.00;99.90
16076;DHT22;8142;48.242;11.644;2023-04-15T06:48:02;7.10;99.90
16076;DHT22;8142;48.242;11.644;2023-04-15T06:50:28;7.10;99.90
16076;DHT22;8142;48.242;11.644;2023-04-15T06:52:55;7.20;99.90
16076;DHT22;8142;48.242;11.644;2023-04-15T06:55:21;7.20;99.90
16076;DHT22;8142;48.242;11.644;2023-04-15T06:57:47;7.30;99.90
16076;DHT22;8142;48.242;11.644;2023-04-15T07:00:13;7.30;99.90
16076;DHT22;8142;48.242;11.644;2023-04-15T07:02:39;7.40;99.90
16076;DHT22;8142;48.242;11.644;2023-04-15T07:05:05;7.50;99.90
16076;DHT22;8142;48.242;11.644;2023-04-15T07:07:32;7.50;99.90
16076;DHT22;8142;48.242;11.644;2023-04-15T07:09:57;7.50;99.90
16076;DHT22;8142;48.242;11.644;2023-04-15T07:12:23;7.50;99.90
16076;DHT22;8142;48.242;11.644;2023-04-15T07:14:49;7.60;99.90
16076;DHT22;8142;48.242;11.644;2023-04-15T07:17:15;7.70;99.90
16076;DHT22;8142;48.242;11.644;2023-04-15T07:19:41;7.60;99.90
16076;DHT22;8142;48.242;11.644;2023-04-15T07:22:07;7.60;99.90
16076;DHT22;8142;48.242;11.644;2023-04-15T07:24:33;7.70;99.90
16076;DHT22;8142;48.242;11.644;2023-04-15T07:26:59;7.70;99.90
16076;DHT22;8142;48.242;11.644;2023-04-15T07:29:24;7.70;99.90
16076;DHT22;8142;48.242;11.644;2023-04-15T07:31:51;7.70;99.90
16076;DHT22;8142;48.242;11.644;2023-04-15T07:34:18;7.80;99.90
16076;DHT22;8142;48.242;11.644;2023-04-15T07:36:45;7.80;99.90
16076;DHT22;8142;48.242;11.644;2023-04-15T07:39:15;7.80;99.90
16076;DHT22;8142;48.242;11.644;2023-04-15T07:41:41;8.00;99.90
16076;DHT22;8142;48.242;11.644;2023-04-15T07:44:07;8.00;99.90
16076;DHT22;8142;48.242;11.644;2023-04-15T07:46:33;8.10;99.90
16076;DHT22;8142;48.242;11.644;2023-04-15T07:48:58;8.10;99.90
16076;DHT22;8142;48.242;11.644;2023-04-15T07:51:25;8.00;99.90
16076;DHT22;8142;48.242;11.644;2023-04-15T07:53:50;8.20;99.90
16076;DHT22;8142;48.242;11.644;2023-04-15T07:56:17;8.20;99.90
16076;DHT22;8142;48.242;11.644;2023-04-15T07:58:43;8.20;99.90
16076;DHT22;8142;48.242;11.644;2023-04-15T08:01:09;8.20;99.90
16076;DHT22;8142;48.242;11.644;2023-04-15T08:03:34;8.30;99.90
16076;DHT22;8142;48.242;11.644;2023-04-15T08:06:00;8.30;99.90
16076;DHT22;8142;48.242;11.644;2023-04-15T08:08:27;8.40;99.90
16076;DHT22;8142;48.242;11.644;2023-04-15T08:10:53;8.40;99.90
16076;DHT22;8142;48.242;11.644;2023-04-15T08:13:19;8.40;99.90
16076;DHT22;8142;48.242;11.644;2023-04-15T08:15:45;8.40;99.90
16076;DHT22;8142;48.242;11.644;2023-04-15T08:18:11;8.50;99.90
16076;DHT22;8142;48.242;11.644;2023-04-15T08:20:37;8.50;99.90
16076;DHT22;8142;48.242;11.644;2023-04-15T08:23:03;8.50;99.90
16076;DHT22;8142;48.242;11.644;2023-04-15T08:25:29;8.50;99.90
16076;DHT22;8142;48.242;11.644;2023-04-15T08:27:55;8.50;99.90
16076;DHT22;8142;48.242;11.644;2023-04-15T08:30:22;8.60;99.90
16076;DHT22;8142;48.242;11.644;2023-04-15T08:32:49;8.60;99.90
16076;DHT22;8142;48.242;11.644;2023-04-15T08:35:15;8.60;99.90
16076;DHT22;8142;48.242;11.644;2023-04-15T08:37:41;8.60;99.90
16076;DHT22;8142;48.242;11.644;2023-04-15T08:40:08;8.70;99.90
16076;DHT22;8142;48.242;11.644;2023-04-15T08:42:40;8.70;99.90
16076;DHT22;8142;48.242;11.644;2023-04-15T08:45:08;8.80;99.90
16076;DHT22;8142;48.242;11.644;2023-04-15T08:47:37;8.90;99.90
16076;DHT22;8142;48.242;11.644;2023-04-15T08:50:08;8.90;99.90
16076;DHT22;8142;48.242;11.644;2023-04-15T08:52:35;9.00;99.90
16076;DHT22;8142;48.242;11.644;2023-04-15T08:55:02;9.10;99.90
16076;DHT22;8142;48.242;11.644;2023-04-15T08:57:28;9.20;99.90
16076;DHT22;8142;48.242;11.644;2023-04-15T08:59:57;9.20;99.90
16076;DHT22;8142;48.242;11.644;2023-04-15T09:02:24;9.20;99.90
16076;DHT22;8142;48.242;11.644;2023-04-15T09:04:52;9.30;99.90
16076;DHT22;8142;48.242;11.644;2023-04-15T09:07:18;9.30;99.90
16076;DHT22;8142;48.242;11.644;2023-04-15T09:09:44;9.30;99.90
16076;DHT22;8142;48.242;11.644;2023-04-15T09:12:11;9.40;99.90
16076;DHT22;8142;48.242;11.644;2023-04-15T09:14:39;9.40;99.90
16076;DHT22;8142;48.242;11.644;2023-04-15T09:17:09;9.40;99.90
16076;DHT22;8142;48.242;11.644;2023-04-15T09:19:35;9.50;99.90
16076;DHT22;8142;48.242;11.644;2023-04-15T09:22:01;9.40;99.90
16076;DHT22;8142;48.242;11.644;2023-04-15T09:24:38;9.50;99.90
16076;DHT22;8142;48.242;11.644;2023-04-15T09:27:05;9.50;99.90
16076;DHT22;8142;48.242;11.644;2023-04-15T09:29:31;9.40;99.90
16076;DHT22;8142;48.242;11.644;2023-04-15T09:32:16;9.60;99.90
16076;DHT22;8142;48.242;11.644;2023-04-15T09:34:42;9.50;99.90
16076;DHT22;8142;48.242;11.644;2023-04-15T09:37:09;9.50;99.90
16076;DHT22;8142;48.242;11.644;2023-04-15T09:39:49;9.50;99.90
16076;DHT22;8142;48.242;11.644;2023-04-15T09:42:16;9.50;99.90
16076;DHT22;8142;48.242;11.644;2023-04-15T09:44:51;9.50;99.90
16076;DHT22;8142;48.242;11.644;2023-04-15T09:47:28;9.50;99.90
16076;DHT22;8142;48.242;11.644;2023-04-15T09:49:55;9.50;99.90
16076;DHT22;8142;48.242;11.644;2023-04-15T09:52:22;9.50;99.90
16076;DHT22;8142;48.242;11.644;2023-04-15T09:54:47;9.40;99.90
16076;DHT22;8142;48.242;11.644;2023-04-15T09:57:17;9.50;99.90
16076;DHT22;8142;48.242;11.644;2023-04-15T09:59:43;9.50;99.90
16076;DHT22;8142;48.242;11.644;2023-04-15T10:02:10;9.50;99.90
16076;DHT22;8142;48.242;11.644;2023-04-15T10:04:39;9.50;99.90
16076;DHT22;8142;48.242;11.644;2023-04-15T10:07:07;9.40;99.90
16076;DHT22;8142;48.242;11.644;2023-04-15T10:09:40;9.50;99.90
16076;DHT22;8142;48.242;11.644;2023-04-15T10:12:08;9.60;99.90
16076;DHT22;8142;48.242;11.644;2023-04-15T10:14:35;9.60;99.90
16076;DHT22;8142;48.242;11.644;2023-04-15T10:17:04;9.60;99.90
16076;DHT22;8142;48.242;11.644;2023-04-15T10:19:32;9.70;99.90
16076;DHT22;8142;48.242;11.644;2023-04-15T10:21:59;9.70;99.90
16076;DHT22;8142;48.242;11.644;2023-04-15T10:24:25;9.70;99.90
16076;DHT22;8142;48.242;11.644;2023-04-15T10:26:52;9.80;99.90
16076;DHT22;8142;48.242;11.644;2023-04-15T10:29:19;9.80;99.90
16076;DHT22;8142;48.242;11.644;2023-04-15T10:31:45;9.80;99.90
16076;DHT22;8142;48.242;11.644;2023-04-15T10:34:12;9.80;99.90
16076;DHT22;8142;48.242;11.644;2023-04-15T10:36:38;9.80;99.90
16076;DHT22;8142;48.242;11.644;2023-04-15T10:42:16;9.80;99.90
16076;DHT22;8142;48.242;11.644;2023-04-15T10:44:51;9.80;99.90
16076;DHT22;8142;48.242;11.644;2023-04-15T10:47:21;9.80;99.90
16076;DHT22;8142;48.242;11.644;2023-04-15T10:49:56;9.80;99.90
16076;DHT22;8142;48.242;11.644;2023-04-15T10:52:24;9.80;99.90
16076;DHT22;8142;48.242;11.644;2023-04-15T10:55:04;9.80;99.90
16076;DHT22;8142;48.242;11.644;2023-04-15T10:57:38;9.80;99.90
16076;DHT22;8142;48.242;11.644;2023-04-15T11:02:54;9.80;99.90
16076;DHT22;8142;48.242;11.644;2023-04-15T11:08:11;9.90;99.90
16076;DHT22;8142;48.242;11.644;2023-04-15T11:13:05;9.90;99.90
16076;DHT22;8142;48.242;11.644;2023-04-15T11:20:51;9.90;99.90
16076;DHT22;8142;48.242;11.644;2023-04-15T11:23:29;9.90;99.90
16076;DHT22;8142;48.242;11.644;2023-04-15T11:25:56;10.00;99.90
16076;DHT22;8142;48.242;11.644;2023-04-15T11:28:27;9.90;99.90
16076;DHT22;8142;48.242;11.644;2023-04-15T11:30:53;9.80;99.90
16076;DHT22;8142;48.242;11.644;2023-04-15T11:33:21;9.80;99.90
16076;DHT22;8142;48.242;11.644;2023-04-15T11:35:47;9.70;99.90
16076;DHT22;8142;48.242;11.644;2023-04-15T11:38:14;9.70;99.90
16076;DHT22;8142;48.242;11.644;2023-04-15T11:40:42;9.60;99.90
16076;DHT22;8142;48.242;11.644;2023-04-15T11:43:15;9.60;99.90
16076;DHT22;8142;48.242;11.644;2023-04-15T11:48:18;9.50;99.90
16076;DHT22;8142;48.242;11.644;2023-04-15T11:50:44;9.40;99.90
16076;DHT22;8142;48.242;11.644;2023-04-15T11:53:11;9.50;99.90
16076;DHT22;8142;48.242;11.644;2023-04-15T11:55:45;9.40;99.90
16076;DHT22;8142;48.242;11.644;2023-04-15T11:58:23;9.40;99.90
16076;DHT22;8142;48.242;11.644;2023-04-15T12:01:07;9.30;99.90
16076;DHT22;8142;48.242;11.644;2023-04-15T12:13:54;9.20;99.90
16076;DHT22;8142;48.242;11.644;2023-04-15T12:16:22;9.20;99.90
16076;DHT22;8142;48.242;11.644;2023-04-15T12:18:53;9.10;99.90
16076;DHT22;8142;48.242;11.644;2023-04-15T12:21:25;9.20;99.90
16076;DHT22;8142;48.242;11.644;2023-04-15T12:23:56;9.30;99.90
16076;DHT22;8142;48.242;11.644;2023-04-15T12:29:15;9.40;99.90
16076;DHT22;8142;48.242;11.644;2023-04-15T12:31:51;9.40;99.90
16076;DHT22;8142;48.242;11.644;2023-04-15T12:34:26;9.40;99.90
16076;DHT22;8142;48.242;11.644;2023-04-15T12:36:53;9.50;99.90
16076;DHT22;8142;48.242;11.644;2023-04-15T12:39:26;9.40;99.90
16076;DHT22;8142;48.242;11.644;2023-04-15T12:41:53;9.40;99.90
16076;DHT22;8142;48.242;11.644;2023-04-15T12:44:21;9.40;99.90
16076;DHT22;8142;48.242;11.644;2023-04-15T12:46:49;9.40;99.90
16076;DHT22;8142;48.242;11.644;2023-04-15T12:49:16;9.40;99.90
16076;DHT22;8142;48.242;11.644;2023-04-15T12:51:50;9.40;99.90
16076;DHT22;8142;48.242;11.644;2023-04-15T12:54:17;9.40;99.90
16076;DHT22;8142;48.242;11.644;2023-04-15T12:56:44;9.40;99.90
16076;DHT22;8142;48.242;11.644;2023-04-15T12:59:11;9.40;99.90
16076;DHT22;8142;48.242;11.644;2023-04-15T13:01:38;9.40;99.90
16076;DHT22;8142;48.242;11.644;2023-04-15T13:04:04;9.40;99.90
16076;DHT22;8142;48.242;11.644;2023-04-15T13:06:30;9.30;99.90
16076;DHT22;8142;48.242;11.644;2023-04-15T13:08:59;9.40;99.90
16076;DHT22;8142;48.242;11.644;2023-04-15T13:11:27;9.40;99.90
16076;DHT22;8142;48.242;11.644;2023-04-15T13:13:56;9.40;99.90
16076;DHT22;8142;48.242;11.644;2023-04-15T13:16:25;9.30;99.90
16076;DHT22;8142;48.242;11.644;2023-04-15T13:18:50;9.30;99.90
16076;DHT22;8142;48.242;11.644;2023-04-15T13:21:17;9.40;99.90
16076;DHT22;8142;48.242;11.644;2023-04-15T13:23:43;9.40;99.90
16076;DHT22;8142;48.242;11.644;2023-04-15T13:26:09;9.30;99.90
16076;DHT22;8142;48.242;11.644;2023-04-15T13:28:35;9.40;99.90
16076;DHT22;8142;48.242;11.644;2023-04-15T13:31:01;9.40;99.90
16076;DHT22;8142;48.242;11.644;2023-04-15T13:33:27;9.40;99.90
16076;DHT22;8142;48.242;11.644;2023-04-15T13:35:53;9.40;99.90
16076;DHT22;8142;48.242;11.644;2023-04-15T13:38:18;9.40;99.90
16076;DHT22;8142;48.242;11.644;2023-04-15T13:40:45;9.50;99.90
16076;DHT22;8142;48.242;11.644;2023-04-15T13:43:11;9.50;99.90
16076;DHT22;8142;48.242;11.644;2023-04-15T13:45:37;9.50;99.90
16076;DHT22;8142;48.242;11.644;2023-04-15T13:48:03;9.50;99.90
16076;DHT22;8142;48.242;11.644;2023-04-15T13:50:29;9.60;99.90
16076;DHT22;8142;48.242;11.644;2023-04-15T13:52:55;9.60;99.90
16076;DHT22;8142;48.242;11.644;2023-04-15T13:55:21;9.60;99.90
16076;DHT22;8142;48.242;11.644;2023-04-15T13:57:47;9.60;99.90
16076;DHT22;8142;48.242;11.644;2023-04-15T14:00:13;9.60;99.90
16076;DHT22;8142;48.242;11.644;2023-04-15T14:02:39;9.60;99.90
16076;DHT22;8142;48.242;11.644;2023-04-15T14:05:06;9.50;99.90
16076;DHT22;8142;48.242;11.644;2023-04-15T14:07:32;9.50;99.90
16076;DHT22;8142;48.242;11.644;2023-04-15T14:09:59;9.50;99.90
16076;DHT22;8142;48.242;11.644;2023-04-15T14:12:25;9.40;99.90
16076;DHT22;8142;48.242;11.644;2023-04-15T14:14:51;9.50;99.90
16076;DHT22;8142;48.242;11.644;2023-04-15T14:17:17;9.40;99.90
16076;DHT22;8142;48.242;11.644;2023-04-15T14:19:43;9.40;99.90
16076;DHT22;8142;48.242;11.644;2023-04-15T14:22:08;9.40;99.90
16076;DHT22;8142;48.242;11.644;2023-04-15T14:24:34;9.40;99.90
16076;DHT22;8142;48.242;11.644;2023-04-15T14:27:00;9.40;99.90
16076;DHT22;8142;48.242;11.644;2023-04-15T14:29:27;9.40;99.90
16076;DHT22;8142;48.242;11.644;2023-04-15T14:31:53;9.40;99.90
16076;DHT22;8142;48.242;11.644;2023-04-15T14:34:19;9.40;99.90
16076;DHT22;8142;48.242;11.644;2023-04-15T14:36:47;9.40;99.90
16076;DHT22;8142;48.242;11.644;2023-04-15T14:39:13;9.40;99.90
16076;DHT22;8142;48.242;11.644;2023-04-15T14:41:38;9.40;99.90
16076;DHT22;8142;48.242;11.644;2023-04-15T14:44:04;9.30;99.90
16076;DHT22;8142;48.242;11.644;2023-04-15T14:46:30;9.40;99.90
16076;DHT22;8142;48.242;11.644;2023-04-15T14:48:56;9.30;99.90
16076;DHT22;8142;48.242;11.644;2023-04-15T14:51:22;9.50;99.90
16076;DHT22;8142;48.242;11.644;2023-04-15T14:53:48;9.30;99.90
16076;DHT22;8142;48.242;11.644;2023-04-15T14:56:14;9.30;99.90
16076;DHT22;8142;48.242;11.644;2023-04-15T14:58:40;9.30;99.90
16076;DHT22;8142;48.242;11.644;2023-04-15T15:01:05;9.20;99.90
16076;DHT22;8142;48.242;11.644;2023-04-15T15:03:32;9.20;99.90
16076;DHT22;8142;48.242;11.644;2023-04-15T15:05:58;9.20;99.90
16076;DHT22;8142;48.242;11.644;2023-04-15T15:08:24;9.20;99.90
16076;DHT22;8142;48.242;11.644;2023-04-15T15:10:50;9.20;99.90
16076;DHT22;8142;48.242;11.644;2023-04-15T15:13:17;9.10;99.90
16076;DHT22;8142;48.242;11.644;2023-04-15T15:15:43;9.10;99.90
16076;DHT22;8142;48.242;11.644;2023-04-15T15:18:10;9.10;99.90
16076;DHT22;8142;48.242;11.644;2023-04-15T15:20:36;9.10;99.90
16076;DHT22;8142;48.242;11.644;2023-04-15T15:23:01;9.10;99.90
16076;DHT22;8142;48.242;11.644;2023-04-15T15:25:28;9.00;99.90
16076;DHT22;8142;48.242;11.644;2023-04-15T15:27:54;8.90;99.90
16076;DHT22;8142;48.242;11.644;2023-04-15T15:30:20;8.70;99.90
16076;DHT22;8142;48.242;11.644;2023-04-15T15:32:46;8.70;99.90
16076;DHT22;8142;48.242;11.644;2023-04-15T15:35:12;8.60;99.90
16076;DHT22;8142;48.242;11.644;2023-04-15T15:37:38;8.50;99.90
16076;DHT22;8142;48.242;11.644;2023-04-15T15:40:06;8.40;99.90
16076;DHT22;8142;48.242;11.644;2023-04-15T15:42:32;8.30;99.90
16076;DHT22;8142;48.242;11.644;2023-04-15T15:44:59;8.20;99.90
16076;DHT22;8142;48.242;11.644;2023-04-15T15:47:25;8.20;99.90
16076;DHT22;8142;48.242;11.644;2023-04-15T15:49:52;8.20;99.90
16076;DHT22;8142;48.242;11.644;2023-04-15T15:52:18;8.10;99.90
16076;DHT22;8142;48.242;11.644;2023-04-15T15:54:43;8.10;99.90
16076;DHT22;8142;48.242;11.644;2023-04-15T15:57:09;8.10;99.90
16076;DHT22;8142;48.242;11.644;2023-04-15T15:59:35;8.00;99.90
16076;DHT22;8142;48.242;11.644;2023-04-15T16:02:12;8.10;99.90
16076;DHT22;8142;48.242;11.644;2023-04-15T16:04:41;8.00;99.90
16076;DHT22;8142;48.242;11.644;2023-04-15T16:07:08;8.00;99.90
16076;DHT22;8142;48.242;11.644;2023-04-15T16:09:35;8.00;99.90
16076;DHT22;8142;48.242;11.644;2023-04-15T16:12:01;8.00;99.90
16076;DHT22;8142;48.242;11.644;2023-04-15T16:14:28;8.10;99.90